sensor_id;sensor_type;location;lat;lon;timestamp;P1;durP1;ratioP1;P2;durP2;ratioP2
44036;SDS011;62488;-37.670;-63.532;2023-03-30T00:00:41;11.80;;;4.07;;
44036;SDS011;62488;-37.670;-63.532;2023-03-30T00:03:10;16.55;;;8.07;;
44036;SDS011;62488;-37.670;-63.532;2023-03-30T00:05:37;16.13;;;9.55;;
44036;SDS011;62488;-37.670;-63.532;2023-03-30T00:08:07;14.38;;;8.15;;
44036;SDS011;62488;-37.670;-63.532;2023-03-30T00:10:35;39.97;;;13.75;;
44036;SDS011;62488;-37.670;-63.532;2023-03-30T00:13:03;29.58;;;11.88;;
44036;SDS011;62488;-37.670;-63.532;2023-03-30T00:15:30;8.32;;;3.00;;
44036;SDS011;62488;-37.670;-63.532;2023-03-30T00:17:57;7.03;;;3.55;;
44036;SDS011;62488;-37.670;-63.532;2023-03-30T00:20:26;7.15;;;3.90;;
44036;SDS011;62488;-37.670;-63.532;2023-03-30T00:22:53;15.90;;;4.15;;
44036;SDS011;62488;-37.670;-63.532;2023-03-30T00:25:20;5.57;;;3.40;;
44036;SDS011;62488;-37.670;-63.532;2023-03-30T00:27:47;5.97;;;2.40;;
44036;SDS011;62488;-37.670;-63.532;2023-03-30T00:30:16;17.88;;;3.95;;
44036;SDS011;62488;-37.670;-63.532;2023-03-30T00:32:44;10.25;;;6.18;;
44036;SDS011;62488;-37.670;-63.532;2023-03-30T00:35:12;17.77;;;8.32;;
44036;SDS011;62488;-37.670;-63.532;2023-03-30T00:37:42;15.65;;;2.35;;
44036;SDS011;62488;-37.670;-63.532;2023-03-30T00:40:14;11.45;;;2.25;;
44036;SDS011;62488;-37.670;-63.532;2023-03-30T00:42:45;20.45;;;2.55;;
44036;SDS011;62488;-37.670;-63.532;2023-03-30T00:45:15;14.88;;;1.92;;
44036;SDS011;62488;-37.670;-63.532;2023-03-30T00:50:15;10.68;;;1.73;;
44036;SDS011;62488;-37.670;-63.532;2023-03-30T00:52:46;4.85;;;1.50;;
44036;SDS011;62488;-37.670;-63.532;2023-03-30T00:55:19;11.45;;;2.38;;
44036;SDS011;62488;-37.670;-63.532;2023-03-30T00:57:48;6.95;;;2.22;;
44036;SDS011;62488;-37.670;-63.532;2023-03-30T01:00:17;16.58;;;3.38;;
44036;SDS011;62488;-37.670;-63.532;2023-03-30T01:02:46;7.20;;;1.60;;
44036;SDS011;62488;-37.670;-63.532;2023-03-30T01:05:26;4.00;;;1.48;;
44036;SDS011;62488;-37.670;-63.532;2023-03-30T01:07:54;14.65;;;2.20;;
44036;SDS011;62488;-37.670;-63.532;2023-03-30T01:10:23;8.32;;;1.65;;
44036;SDS011;62488;-37.670;-63.532;2023-03-30T01:12:50;15.02;;;2.42;;
44036;SDS011;62488;-37.670;-63.532;2023-03-30T01:15:18;11.77;;;2.92;;
44036;SDS011;62488;-37.670;-63.532;2023-03-30T01:17:57;17.13;;;4.22;;
44036;SDS011;62488;-37.670;-63.532;2023-03-30T01:20:55;5.63;;;1.40;;
44036;SDS011;62488;-37.670;-63.532;2023-03-30T01:26:23;9.50;;;2.30;;
44036;SDS011;62488;-37.670;-63.532;2023-03-30T01:35:15;1.63;;;1.33;;
44036;SDS011;62488;-37.670;-63.532;2023-03-30T01:38:20;9.35;;;1.80;;
44036;SDS011;62488;-37.670;-63.532;2023-03-30T01:41:26;8.15;;;1.98;;
44036;SDS011;62488;-37.670;-63.532;2023-03-30T01:46:50;3.75;;;1.70;;
44036;SDS011;62488;-37.670;-63.532;2023-03-30T01:52:17;7.40;;;2.22;;
44036;SDS011;62488;-37.670;-63.532;2023-03-30T01:54:51;2.92;;;1.27;;
44036;SDS011;62488;-37.670;-63.532;2023-03-30T01:57:31;2.13;;;1.70;;
44036;SDS011;62488;-37.670;-63.532;2023-03-30T02:00:16;4.72;;;0.80;;
44036;SDS011;62488;-37.670;-63.532;2023-03-30T02:03:32;2.35;;;1.17;;
44036;SDS011;62488;-37.670;-63.532;2023-03-30T02:05:39;11.57;;;1.30;;
44036;SDS011;62488;-37.670;-63.532;2023-03-30T02:08:08;5.10;;;1.20;;
44036;SDS011;62488;-37.670;-63.532;2023-03-30T02:10:48;5.82;;;1.40;;
44036;SDS011;62488;-37.670;-63.532;2023-03-30T02:13:18;1.67;;;0.80;;
44036;SDS011;62488;-37.670;-63.532;2023-03-30T02:15:52;2.60;;;1.10;;
44036;SDS011;62488;-37.670;-63.532;2023-03-30T02:18:23;1.45;;;1.15;;
44036;SDS011;62488;-37.670;-63.532;2023-03-30T02:20:52;4.72;;;1.00;;
44036;SDS011;62488;-37.670;-63.532;2023-03-30T02:23:24;8.90;;;2.35;;
44036;SDS011;62488;-37.670;-63.532;2023-03-30T02:25:56;1.20;;;1.08;;
44036;SDS011;62488;-37.670;-63.532;2023-03-30T02:28:23;6.65;;;1.27;;
44036;SDS011;62488;-37.670;-63.532;2023-03-30T02:30:51;3.65;;;0.95;;
44036;SDS011;62488;-37.670;-63.532;2023-03-30T02:41:13;4.55;;;1.02;;
44036;SDS011;62488;-37.670;-63.532;2023-03-30T02:44:04;5.20;;;1.40;;
44036;SDS011;62488;-37.670;-63.532;2023-03-30T02:46:59;4.07;;;1.00;;
44036;SDS011;62488;-37.670;-63.532;2023-03-30T02:49:44;6.25;;;1.63;;
44036;SDS011;62488;-37.670;-63.532;2023-03-30T02:55:08;8.35;;;1.40;;
44036;SDS011;62488;-37.670;-63.532;2023-03-30T03:03:24;3.28;;;1.25;;
44036;SDS011;62488;-37.670;-63.532;2023-03-30T03:05:56;1.25;;;0.90;;
44036;SDS011;62488;-37.670;-63.532;2023-03-30T03:08:31;3.70;;;1.20;;
44036;SDS011;62488;-37.670;-63.532;2023-03-30T03:11:00;3.50;;;1.02;;
44036;SDS011;62488;-37.670;-63.532;2023-03-30T03:13:27;4.70;;;1.80;;
44036;SDS011;62488;-37.670;-63.532;2023-03-30T03:15:54;1.17;;;0.90;;
44036;SDS011;62488;-37.670;-63.532;2023-03-30T03:18:24;3.92;;;1.00;;
44036;SDS011;62488;-37.670;-63.532;2023-03-30T03:20:51;1.23;;;0.90;;
44036;SDS011;62488;-37.670;-63.532;2023-03-30T03:23:18;2.88;;;0.95;;
44036;SDS011;62488;-37.670;-63.532;2023-03-30T03:25:45;3.17;;;1.20;;
44036;SDS011;62488;-37.670;-63.532;2023-03-30T03:28:12;7.43;;;1.08;;
44036;SDS011;62488;-37.670;-63.532;2023-03-30T03:30:40;1.50;;;0.80;;
44036;SDS011;62488;-37.670;-63.532;2023-03-30T03:33:07;4.00;;;1.10;;
44036;SDS011;62488;-37.670;-63.532;2023-03-30T03:35:36;3.22;;;0.90;;
44036;SDS011;62488;-37.670;-63.532;2023-03-30T03:38:04;4.65;;;1.10;;
44036;SDS011;62488;-37.670;-63.532;2023-03-30T03:40:32;2.53;;;0.90;;
44036;SDS011;62488;-37.670;-63.532;2023-03-30T03:42:59;5.15;;;1.35;;
44036;SDS011;62488;-37.670;-63.532;2023-03-30T03:45:26;2.78;;;1.00;;
44036;SDS011;62488;-37.670;-63.532;2023-03-30T03:47:53;3.03;;;1.45;;
44036;SDS011;62488;-37.670;-63.532;2023-03-30T03:50:20;3.50;;;0.95;;
44036;SDS011;62488;-37.670;-63.532;2023-03-30T03:52:47;1.88;;;1.00;;
44036;SDS011;62488;-37.670;-63.532;2023-03-30T03:55:14;1.92;;;1.00;;
44036;SDS011;62488;-37.670;-63.532;2023-03-30T03:57:43;6.43;;;2.13;;
44036;SDS011;62488;-37.670;-63.532;2023-03-30T04:00:10;4.72;;;1.10;;
44036;SDS011;62488;-37.670;-63.532;2023-03-30T04:02:43;3.47;;;0.95;;
44036;SDS011;62488;-37.670;-63.532;2023-03-30T04:05:10;1.13;;;0.90;;
44036;SDS011;62488;-37.670;-63.532;2023-03-30T04:07:37;4.50;;;1.20;;
44036;SDS011;62488;-37.670;-63.532;2023-03-30T04:10:05;2.97;;;0.98;;
44036;SDS011;62488;-37.670;-63.532;2023-03-30T04:12:32;3.65;;;1.33;;
44036;SDS011;62488;-37.670;-63.532;2023-03-30T04:15:00;2.60;;;1.65;;
44036;SDS011;62488;-37.670;-63.532;2023-03-30T04:17:27;4.15;;;1.40;;
44036;SDS011;62488;-37.670;-63.532;2023-03-30T04:19:54;3.08;;;1.52;;
44036;SDS011;62488;-37.670;-63.532;2023-03-30T04:22:21;2.67;;;1.70;;
44036;SDS011;62488;-37.670;-63.532;2023-03-30T04:24:50;3.72;;;1.20;;
44036;SDS011;62488;-37.670;-63.532;2023-03-30T04:27:18;1.65;;;1.02;;
44036;SDS011;62488;-37.670;-63.532;2023-03-30T04:29:45;6.93;;;1.35;;
44036;SDS011;62488;-37.670;-63.532;2023-03-30T04:32:14;9.82;;;2.20;;
44036;SDS011;62488;-37.670;-63.532;2023-03-30T04:34:45;2.13;;;0.88;;
44036;SDS011;62488;-37.670;-63.532;2023-03-30T04:37:12;0.85;;;0.82;;
44036;SDS011;62488;-37.670;-63.532;2023-03-30T04:39:43;3.28;;;1.00;;
44036;SDS011;62488;-37.670;-63.532;2023-03-30T04:42:10;5.10;;;1.05;;
44036;SDS011;62488;-37.670;-63.532;2023-03-30T04:44:44;4.20;;;1.25;;
44036;SDS011;62488;-37.670;-63.532;2023-03-30T04:47:11;6.20;;;1.58;;
44036;SDS011;62488;-37.670;-63.532;2023-03-30T04:49:39;3.33;;;1.10;;
44036;SDS011;62488;-37.670;-63.532;2023-03-30T04:52:06;5.85;;;1.10;;
44036;SDS011;62488;-37.670;-63.532;2023-03-30T04:54:33;3.15;;;1.40;;
44036;SDS011;62488;-37.670;-63.532;2023-03-30T04:57:00;4.90;;;1.15;;
44036;SDS011;62488;-37.670;-63.532;2023-03-30T04:59:27;8.55;;;2.17;;
44036;SDS011;62488;-37.670;-63.532;2023-03-30T05:01:54;6.07;;;1.00;;
44036;SDS011;62488;-37.670;-63.532;2023-03-30T05:04:22;16.42;;;1.30;;
44036;SDS011;62488;-37.670;-63.532;2023-03-30T05:06:49;8.00;;;1.20;;
44036;SDS011;62488;-37.670;-63.532;2023-03-30T05:09:16;4.00;;;1.20;;
44036;SDS011;62488;-37.670;-63.532;2023-03-30T05:11:43;9.52;;;1.40;;
44036;SDS011;62488;-37.670;-63.532;2023-03-30T05:14:11;3.03;;;0.82;;
44036;SDS011;62488;-37.670;-63.532;2023-03-30T05:16:39;3.40;;;0.88;;
44036;SDS011;62488;-37.670;-63.532;2023-03-30T05:19:06;7.13;;;1.13;;
44036;SDS011;62488;-37.670;-63.532;2023-03-30T05:21:33;2.75;;;0.82;;
44036;SDS011;62488;-37.670;-63.532;2023-03-30T05:24:00;5.93;;;1.30;;
44036;SDS011;62488;-37.670;-63.532;2023-03-30T05:26:27;5.20;;;1.55;;
44036;SDS011;62488;-37.670;-63.532;2023-03-30T05:28:55;5.30;;;1.45;;
44036;SDS011;62488;-37.670;-63.532;2023-03-30T05:31:22;7.22;;;1.35;;
44036;SDS011;62488;-37.670;-63.532;2023-03-30T05:33:49;4.20;;;1.17;;
44036;SDS011;62488;-37.670;-63.532;2023-03-30T05:36:19;3.60;;;1.45;;
44036;SDS011;62488;-37.670;-63.532;2023-03-30T05:38:46;2.85;;;0.90;;
44036;SDS011;62488;-37.670;-63.532;2023-03-30T05:41:13;6.13;;;1.45;;
44036;SDS011;62488;-37.670;-63.532;2023-03-30T05:43:41;6.43;;;1.40;;
44036;SDS011;62488;-37.670;-63.532;2023-03-30T05:46:08;8.38;;;1.13;;
44036;SDS011;62488;-37.670;-63.532;2023-03-30T05:48:36;6.53;;;1.55;;
44036;SDS011;62488;-37.670;-63.532;2023-03-30T05:51:03;8.55;;;1.90;;
44036;SDS011;62488;-37.670;-63.532;2023-03-30T05:53:34;3.30;;;1.10;;
44036;SDS011;62488;-37.670;-63.532;2023-03-30T05:56:01;5.30;;;1.13;;
44036;SDS011;62488;-37.670;-63.532;2023-03-30T05:58:28;4.18;;;1.38;;
44036;SDS011;62488;-37.670;-63.532;2023-03-30T06:00:58;7.63;;;1.50;;
44036;SDS011;62488;-37.670;-63.532;2023-03-30T06:03:27;5.93;;;1.42;;
44036;SDS011;62488;-37.670;-63.532;2023-03-30T06:05:54;6.05;;;1.13;;
44036;SDS011;62488;-37.670;-63.532;2023-03-30T06:08:21;9.98;;;1.30;;
44036;SDS011;62488;-37.670;-63.532;2023-03-30T06:10:52;5.68;;;2.55;;
44036;SDS011;62488;-37.670;-63.532;2023-03-30T06:13:20;5.72;;;1.50;;
44036;SDS011;62488;-37.670;-63.532;2023-03-30T06:15:48;6.95;;;2.15;;
44036;SDS011;62488;-37.670;-63.532;2023-03-30T06:18:15;6.85;;;1.55;;
44036;SDS011;62488;-37.670;-63.532;2023-03-30T06:20:47;4.82;;;1.10;;
44036;SDS011;62488;-37.670;-63.532;2023-03-30T06:35:28;10.75;;;1.88;;
44036;SDS011;62488;-37.670;-63.532;2023-03-30T06:37:55;9.05;;;1.30;;
44036;SDS011;62488;-37.670;-63.532;2023-03-30T06:40:22;4.05;;;1.23;;
44036;SDS011;62488;-37.670;-63.532;2023-03-30T06:42:49;2.60;;;1.10;;
44036;SDS011;62488;-37.670;-63.532;2023-03-30T06:45:16;7.25;;;2.30;;
44036;SDS011;62488;-37.670;-63.532;2023-03-30T06:47:43;6.43;;;1.10;;
44036;SDS011;62488;-37.670;-63.532;2023-03-30T06:50:10;9.18;;;2.22;;
44036;SDS011;62488;-37.670;-63.532;2023-03-30T06:52:38;6.55;;;1.88;;
44036;SDS011;62488;-37.670;-63.532;2023-03-30T06:55:06;5.40;;;1.73;;
44036;SDS011;62488;-37.670;-63.532;2023-03-30T06:57:33;11.70;;;1.80;;
44036;SDS011;62488;-37.670;-63.532;2023-03-30T07:00:01;11.00;;;3.42;;
44036;SDS011;62488;-37.670;-63.532;2023-03-30T07:02:33;8.95;;;2.92;;
44036;SDS011;62488;-37.670;-63.532;2023-03-30T07:05:00;12.07;;;2.90;;
44036;SDS011;62488;-37.670;-63.532;2023-03-30T07:07:27;6.32;;;3.15;;
44036;SDS011;62488;-37.670;-63.532;2023-03-30T07:09:55;10.07;;;6.47;;
44036;SDS011;62488;-37.670;-63.532;2023-03-30T07:12:22;18.63;;;11.80;;
44036;SDS011;62488;-37.670;-63.532;2023-03-30T07:14:49;14.02;;;8.27;;
44036;SDS011;62488;-37.670;-63.532;2023-03-30T07:17:17;8.38;;;4.90;;
44036;SDS011;62488;-37.670;-63.532;2023-03-30T07:19:46;9.45;;;2.90;;
44036;SDS011;62488;-37.670;-63.532;2023-03-30T07:22:13;12.05;;;5.35;;
44036;SDS011;62488;-37.670;-63.532;2023-03-30T07:24:40;13.40;;;4.25;;
44036;SDS011;62488;-37.670;-63.532;2023-03-30T07:27:09;12.48;;;6.55;;
44036;SDS011;62488;-37.670;-63.532;2023-03-30T07:29:37;9.27;;;5.40;;
44036;SDS011;62488;-37.670;-63.532;2023-03-30T07:32:05;7.75;;;2.20;;
44036;SDS011;62488;-37.670;-63.532;2023-03-30T07:34:32;9.57;;;2.20;;
44036;SDS011;62488;-37.670;-63.532;2023-03-30T07:36:59;4.50;;;1.90;;
44036;SDS011;62488;-37.670;-63.532;2023-03-30T07:39:26;9.98;;;1.60;;
44036;SDS011;62488;-37.670;-63.532;2023-03-30T07:41:53;3.38;;;1.23;;
44036;SDS011;62488;-37.670;-63.532;2023-03-30T07:44:20;9.40;;;1.52;;
44036;SDS011;62488;-37.670;-63.532;2023-03-30T07:46:48;8.38;;;1.98;;
44036;SDS011;62488;-37.670;-63.532;2023-03-30T07:49:15;4.78;;;1.92;;
44036;SDS011;62488;-37.670;-63.532;2023-03-30T07:51:42;7.75;;;2.33;;
44036;SDS011;62488;-37.670;-63.532;2023-03-30T07:54:09;6.22;;;1.20;;
44036;SDS011;62488;-37.670;-63.532;2023-03-30T07:56:37;6.45;;;1.83;;
44036;SDS011;62488;-37.670;-63.532;2023-03-30T07:59:05;7.00;;;1.77;;
44036;SDS011;62488;-37.670;-63.532;2023-03-30T08:01:35;5.22;;;1.55;;
44036;SDS011;62488;-37.670;-63.532;2023-03-30T08:04:03;10.57;;;2.25;;
44036;SDS011;62488;-37.670;-63.532;2023-03-30T08:06:30;6.60;;;2.40;;
44036;SDS011;62488;-37.670;-63.532;2023-03-30T08:08:57;7.75;;;2.42;;
44036;SDS011;62488;-37.670;-63.532;2023-03-30T08:11:25;12.05;;;4.90;;
44036;SDS011;62488;-37.670;-63.532;2023-03-30T08:13:53;6.72;;;2.58;;
44036;SDS011;62488;-37.670;-63.532;2023-03-30T08:16:20;3.88;;;1.38;;
44036;SDS011;62488;-37.670;-63.532;2023-03-30T08:18:47;8.75;;;1.38;;
44036;SDS011;62488;-37.670;-63.532;2023-03-30T08:21:14;5.45;;;1.30;;
44036;SDS011;62488;-37.670;-63.532;2023-03-30T08:23:41;7.88;;;1.58;;
44036;SDS011;62488;-37.670;-63.532;2023-03-30T08:26:08;7.93;;;1.60;;
44036;SDS011;62488;-37.670;-63.532;2023-03-30T08:28:35;4.95;;;1.35;;
44036;SDS011;62488;-37.670;-63.532;2023-03-30T08:31:03;7.57;;;2.25;;
44036;SDS011;62488;-37.670;-63.532;2023-03-30T08:33:31;7.93;;;2.03;;
44036;SDS011;62488;-37.670;-63.532;2023-03-30T08:35:59;12.45;;;2.22;;
44036;SDS011;62488;-37.670;-63.532;2023-03-30T08:38:26;4.68;;;1.80;;
44036;SDS011;62488;-37.670;-63.532;2023-03-30T08:40:53;11.43;;;2.00;;
44036;SDS011;62488;-37.670;-63.532;2023-03-30T08:46:17;8.82;;;1.40;;
44036;SDS011;62488;-37.670;-63.532;2023-03-30T08:48:46;6.55;;;1.60;;
44036;SDS011;62488;-37.670;-63.532;2023-03-30T08:53:42;16.38;;;2.70;;
44036;SDS011;62488;-37.670;-63.532;2023-03-30T08:56:17;5.95;;;1.48;;
44036;SDS011;62488;-37.670;-63.532;2023-03-30T08:58:54;6.18;;;1.70;;
44036;SDS011;62488;-37.670;-63.532;2023-03-30T09:01:48;7.72;;;2.10;;
44036;SDS011;62488;-37.670;-63.532;2023-03-30T09:05:00;5.50;;;2.33;;
44036;SDS011;62488;-37.670;-63.532;2023-03-30T09:07:23;12.48;;;2.47;;
44036;SDS011;62488;-37.670;-63.532;2023-03-30T09:09:53;7.57;;;2.47;;
44036;SDS011;62488;-37.670;-63.532;2023-03-30T09:12:35;6.87;;;2.40;;
44036;SDS011;62488;-37.670;-63.532;2023-03-30T09:17:55;9.02;;;3.00;;
44036;SDS011;62488;-37.670;-63.532;2023-03-30T09:20:40;4.85;;;2.05;;
44036;SDS011;62488;-37.670;-63.532;2023-03-30T09:23:13;6.78;;;1.70;;
44036;SDS011;62488;-37.670;-63.532;2023-03-30T09:25:45;8.13;;;2.30;;
44036;SDS011;62488;-37.670;-63.532;2023-03-30T09:31:31;3.22;;;1.40;;
44036;SDS011;62488;-37.670;-63.532;2023-03-30T09:34:12;7.38;;;1.40;;
44036;SDS011;62488;-37.670;-63.532;2023-03-30T09:36:56;5.38;;;1.50;;
44036;SDS011;62488;-37.670;-63.532;2023-03-30T09:39:29;4.20;;;2.30;;
44036;SDS011;62488;-37.670;-63.532;2023-03-30T09:47:24;12.63;;;4.20;;
44036;SDS011;62488;-37.670;-63.532;2023-03-30T09:49:57;11.13;;;5.38;;
44036;SDS011;62488;-37.670;-63.532;2023-03-30T09:52:27;11.50;;;4.03;;
44036;SDS011;62488;-37.670;-63.532;2023-03-30T09:54:59;7.10;;;2.28;;
44036;SDS011;62488;-37.670;-63.532;2023-03-30T09:57:50;6.78;;;2.05;;
44036;SDS011;62488;-37.670;-63.532;2023-03-30T10:00:23;13.50;;;2.72;;
44036;SDS011;62488;-37.670;-63.532;2023-03-30T10:02:57;7.55;;;1.98;;
44036;SDS011;62488;-37.670;-63.532;2023-03-30T10:05:27;5.10;;;1.50;;
44036;SDS011;62488;-37.670;-63.532;2023-03-30T10:07:56;7.63;;;1.30;;
44036;SDS011;62488;-37.670;-63.532;2023-03-30T10:10:34;20.33;;;2.92;;
44036;SDS011;62488;-37.670;-63.532;2023-03-30T10:15:40;7.30;;;1.70;;
44036;SDS011;62488;-37.670;-63.532;2023-03-30T10:20:53;7.07;;;2.15;;
44036;SDS011;62488;-37.670;-63.532;2023-03-30T10:23:36;6.28;;;2.00;;
44036;SDS011;62488;-37.670;-63.532;2023-03-30T10:26:14;7.95;;;2.20;;
44036;SDS011;62488;-37.670;-63.532;2023-03-30T10:28:58;7.10;;;3.17;;
44036;SDS011;62488;-37.670;-63.532;2023-03-30T10:31:35;13.32;;;5.63;;
44036;SDS011;62488;-37.670;-63.532;2023-03-30T10:34:12;27.45;;;18.05;;
44036;SDS011;62488;-37.670;-63.532;2023-03-30T10:36:54;45.75;;;35.20;;
44036;SDS011;62488;-37.670;-63.532;2023-03-30T10:41:52;41.38;;;37.42;;
44036;SDS011;62488;-37.670;-63.532;2023-03-30T10:44:22;42.83;;;38.38;;
44036;SDS011;62488;-37.670;-63.532;2023-03-30T10:49:48;43.53;;;34.03;;
44036;SDS011;62488;-37.670;-63.532;2023-03-30T10:55:26;7.65;;;4.75;;
44036;SDS011;62488;-37.670;-63.532;2023-03-30T11:00:57;34.00;;;30.65;;
44036;SDS011;62488;-37.670;-63.532;2023-03-30T11:03:35;36.03;;;32.50;;
44036;SDS011;62488;-37.670;-63.532;2023-03-30T11:06:09;16.20;;;14.27;;
44036;SDS011;62488;-37.670;-63.532;2023-03-30T11:09:13;14.77;;;6.45;;
44036;SDS011;62488;-37.670;-63.532;2023-03-30T11:11:51;22.70;;;4.03;;
44036;SDS011;62488;-37.670;-63.532;2023-03-30T11:14:36;11.13;;;4.93;;
44036;SDS011;62488;-37.670;-63.532;2023-03-30T11:20:29;8.65;;;5.63;;
44036;SDS011;62488;-37.670;-63.532;2023-03-30T11:26:10;10.50;;;7.50;;
44036;SDS011;62488;-37.670;-63.532;2023-03-30T11:28:49;15.43;;;4.72;;
44036;SDS011;62488;-37.670;-63.532;2023-03-30T11:31:36;10.82;;;3.30;;
44036;SDS011;62488;-37.670;-63.532;2023-03-30T11:40:12;11.57;;;4.15;;
44036;SDS011;62488;-37.670;-63.532;2023-03-30T11:43:14;11.07;;;5.57;;
44036;SDS011;62488;-37.670;-63.532;2023-03-30T11:45:56;5.18;;;2.45;;
44036;SDS011;62488;-37.670;-63.532;2023-03-30T11:48:51;22.63;;;3.60;;
44036;SDS011;62488;-37.670;-63.532;2023-03-30T12:00:03;9.68;;;2.63;;
44036;SDS011;62488;-37.670;-63.532;2023-03-30T12:03:14;12.85;;;2.60;;
44036;SDS011;62488;-37.670;-63.532;2023-03-30T12:06:07;7.32;;;2.78;;
44036;SDS011;62488;-37.670;-63.532;2023-03-30T12:11:55;7.63;;;3.30;;
44036;SDS011;62488;-37.670;-63.532;2023-03-30T12:22:36;11.68;;;2.58;;
44036;SDS011;62488;-37.670;-63.532;2023-03-30T12:25:27;7.55;;;2.80;;
44036;SDS011;62488;-37.670;-63.532;2023-03-30T12:33:19;8.30;;;2.60;;
44036;SDS011;62488;-37.670;-63.532;2023-03-30T12:36:00;12.05;;;3.00;;
44036;SDS011;62488;-37.670;-63.532;2023-03-30T12:38:42;9.93;;;3.97;;
44036;SDS011;62488;-37.670;-63.532;2023-03-30T12:41:14;14.02;;;4.72;;
44036;SDS011;62488;-37.670;-63.532;2023-03-30T12:49:03;12.02;;;3.40;;
44036;SDS011;62488;-37.670;-63.532;2023-03-30T13:06:22;14.07;;;2.38;;
44036;SDS011;62488;-37.670;-63.532;2023-03-30T13:08:55;8.10;;;2.00;;
44036;SDS011;62488;-37.670;-63.532;2023-03-30T13:14:26;15.10;;;3.38;;
44036;SDS011;62488;-37.670;-63.532;2023-03-30T13:17:13;9.57;;;2.75;;
44036;SDS011;62488;-37.670;-63.532;2023-03-30T13:19:43;10.20;;;2.13;;
44036;SDS011;62488;-37.670;-63.532;2023-03-30T13:22:31;16.95;;;2.85;;
44036;SDS011;62488;-37.670;-63.532;2023-03-30T13:25:23;9.27;;;2.65;;
44036;SDS011;62488;-37.670;-63.532;2023-03-30T13:27:55;10.63;;;2.28;;
44036;SDS011;62488;-37.670;-63.532;2023-03-30T13:30:27;9.85;;;2.38;;
44036;SDS011;62488;-37.670;-63.532;2023-03-30T13:44:01;10.80;;;2.22;;
44036;SDS011;62488;-37.670;-63.532;2023-03-30T13:46:52;10.30;;;2.35;;
44036;SDS011;62488;-37.670;-63.532;2023-03-30T13:49:35;14.85;;;2.60;;
44036;SDS011;62488;-37.670;-63.532;2023-03-30T13:52:17;8.82;;;2.25;;
44036;SDS011;62488;-37.670;-63.532;2023-03-30T13:54:50;10.93;;;2.67;;
44036;SDS011;62488;-37.670;-63.532;2023-03-30T13:57:21;11.73;;;2.50;;
44036;SDS011;62488;-37.670;-63.532;2023-03-30T14:05:57;11.93;;;2.60;;
44036;SDS011;62488;-37.670;-63.532;2023-03-30T14:08:33;8.45;;;3.08;;
44036;SDS011;62488;-37.670;-63.532;2023-03-30T14:11:03;13.70;;;3.00;;
44036;SDS011;62488;-37.670;-63.532;2023-03-30T14:13:36;15.18;;;3.28;;
44036;SDS011;62488;-37.670;-63.532;2023-03-30T14:16:04;11.35;;;2.22;;
44036;SDS011;62488;-37.670;-63.532;2023-03-30T14:18:32;7.28;;;2.40;;
44036;SDS011;62488;-37.670;-63.532;2023-03-30T14:21:00;10.55;;;2.40;;
44036;SDS011;62488;-37.670;-63.532;2023-03-30T14:26:00;12.63;;;2.40;;
44036;SDS011;62488;-37.670;-63.532;2023-03-30T14:28:33;7.80;;;1.80;;
44036;SDS011;62488;-37.670;-63.532;2023-03-30T14:31:03;8.98;;;2.05;;
44036;SDS011;62488;-37.670;-63.532;2023-03-30T14:33:41;8.70;;;2.05;;
44036;SDS011;62488;-37.670;-63.532;2023-03-30T14:36:09;13.98;;;2.90;;
44036;SDS011;62488;-37.670;-63.532;2023-03-30T14:38:40;11.02;;;3.05;;
44036;SDS011;62488;-37.670;-63.532;2023-03-30T14:41:22;16.95;;;3.33;;
44036;SDS011;62488;-37.670;-63.532;2023-03-30T14:43:57;10.15;;;2.17;;
44036;SDS011;62488;-37.670;-63.532;2023-03-30T14:49:21;7.05;;;2.17;;
44036;SDS011;62488;-37.670;-63.532;2023-03-30T14:52:01;13.82;;;3.80;;
44036;SDS011;62488;-37.670;-63.532;2023-03-30T14:54:39;13.23;;;2.67;;
44036;SDS011;62488;-37.670;-63.532;2023-03-30T14:57:07;9.70;;;2.15;;
44036;SDS011;62488;-37.670;-63.532;2023-03-30T14:59:37;9.60;;;2.72;;
44036;SDS011;62488;-37.670;-63.532;2023-03-30T15:02:19;14.45;;;2.35;;
44036;SDS011;62488;-37.670;-63.532;2023-03-30T15:04:51;12.50;;;2.78;;
44036;SDS011;62488;-37.670;-63.532;2023-03-30T15:07:20;7.40;;;2.03;;
44036;SDS011;62488;-37.670;-63.532;2023-03-30T15:09:56;7.45;;;2.70;;
44036;SDS011;62488;-37.670;-63.532;2023-03-30T15:12:39;14.20;;;3.60;;
44036;SDS011;62488;-37.670;-63.532;2023-03-30T15:15:10;9.02;;;2.50;;
44036;SDS011;62488;-37.670;-63.532;2023-03-30T15:17:45;10.25;;;2.70;;
44036;SDS011;62488;-37.670;-63.532;2023-03-30T15:20:15;7.40;;;2.22;;
44036;SDS011;62488;-37.670;-63.532;2023-03-30T15:22:44;7.93;;;2.50;;
44036;SDS011;62488;-37.670;-63.532;2023-03-30T15:25:20;8.82;;;2.85;;
44036;SDS011;62488;-37.670;-63.532;2023-03-30T15:28:06;9.00;;;2.20;;
44036;SDS011;62488;-37.670;-63.532;2023-03-30T15:30:43;7.55;;;2.40;;
44036;SDS011;62488;-37.670;-63.532;2023-03-30T15:36:17;14.13;;;2.72;;
44036;SDS011;62488;-37.670;-63.532;2023-03-30T15:38:51;13.18;;;3.25;;
44036;SDS011;62488;-37.670;-63.532;2023-03-30T15:41:30;7.97;;;2.53;;
44036;SDS011;62488;-37.670;-63.532;2023-03-30T15:44:20;8.30;;;3.10;;
44036;SDS011;62488;-37.670;-63.532;2023-03-30T15:46:49;13.60;;;2.20;;
44036;SDS011;62488;-37.670;-63.532;2023-03-30T15:49:20;11.15;;;2.45;;
44036;SDS011;62488;-37.670;-63.532;2023-03-30T15:51:51;9.80;;;2.40;;
44036;SDS011;62488;-37.670;-63.532;2023-03-30T15:54:32;9.65;;;2.25;;
44036;SDS011;62488;-37.670;-63.532;2023-03-30T15:59:43;8.70;;;3.22;;
44036;SDS011;62488;-37.670;-63.532;2023-03-30T16:02:22;9.40;;;2.15;;
44036;SDS011;62488;-37.670;-63.532;2023-03-30T16:05:17;14.40;;;3.70;;
44036;SDS011;62488;-37.670;-63.532;2023-03-30T16:07:46;7.70;;;2.28;;
44036;SDS011;62488;-37.670;-63.532;2023-03-30T16:10:14;12.13;;;3.10;;
44036;SDS011;62488;-37.670;-63.532;2023-03-30T16:12:49;7.25;;;2.08;;
44036;SDS011;62488;-37.670;-63.532;2023-03-30T16:15:19;5.50;;;2.13;;
44036;SDS011;62488;-37.670;-63.532;2023-03-30T16:17:51;17.13;;;2.58;;
44036;SDS011;62488;-37.670;-63.532;2023-03-30T16:20:20;6.72;;;2.05;;
44036;SDS011;62488;-37.670;-63.532;2023-03-30T16:22:49;10.77;;;2.25;;
44036;SDS011;62488;-37.670;-63.532;2023-03-30T16:25:17;8.63;;;1.98;;
44036;SDS011;62488;-37.670;-63.532;2023-03-30T16:27:47;10.48;;;2.50;;
44036;SDS011;62488;-37.670;-63.532;2023-03-30T16:30:30;8.77;;;2.38;;
44036;SDS011;62488;-37.670;-63.532;2023-03-30T16:33:00;13.07;;;2.35;;
44036;SDS011;62488;-37.670;-63.532;2023-03-30T16:35:27;12.15;;;2.20;;
44036;SDS011;62488;-37.670;-63.532;2023-03-30T16:37:54;9.93;;;1.60;;
44036;SDS011;62488;-37.670;-63.532;2023-03-30T16:40:27;9.90;;;2.33;;
44036;SDS011;62488;-37.670;-63.532;2023-03-30T16:43:00;8.63;;;2.72;;
44036;SDS011;62488;-37.670;-63.532;2023-03-30T16:45:28;16.20;;;2.75;;
44036;SDS011;62488;-37.670;-63.532;2023-03-30T16:47:56;11.88;;;1.98;;
44036;SDS011;62488;-37.670;-63.532;2023-03-30T16:53:10;8.38;;;2.53;;
44036;SDS011;62488;-37.670;-63.532;2023-03-30T16:55:38;15.38;;;3.13;;
44036;SDS011;62488;-37.670;-63.532;2023-03-30T16:58:06;9.95;;;2.17;;
44036;SDS011;62488;-37.670;-63.532;2023-03-30T17:00:55;13.07;;;2.50;;
44036;SDS011;62488;-37.670;-63.532;2023-03-30T17:03:27;11.30;;;2.42;;
44036;SDS011;62488;-37.670;-63.532;2023-03-30T17:05:54;9.13;;;2.40;;
44036;SDS011;62488;-37.670;-63.532;2023-03-30T17:08:24;13.65;;;2.38;;
44036;SDS011;62488;-37.670;-63.532;2023-03-30T17:10:54;10.70;;;2.15;;
44036;SDS011;62488;-37.670;-63.532;2023-03-30T17:13:24;7.90;;;2.42;;
44036;SDS011;62488;-37.670;-63.532;2023-03-30T17:15:55;8.52;;;2.72;;
44036;SDS011;62488;-37.670;-63.532;2023-03-30T17:18:25;7.47;;;2.15;;
44036;SDS011;62488;-37.670;-63.532;2023-03-30T17:20:55;13.48;;;3.28;;
44036;SDS011;62488;-37.670;-63.532;2023-03-30T17:23:24;9.02;;;2.10;;